sensor_id;sensor_type;location;lat;lon;timestamp;temperature;humidity
14401;DHT22;7285;50.894;5.462;2022-07-23T00:00:10;16.40;1.00
14401;DHT22;7285;50.894;5.462;2022-07-23T00:02:37;16.40;99.90
14401;DHT22;7285;50.894;5.462;2022-07-23T00:05:04;16.40;99.90
14401;DHT22;7285;50.894;5.462;2022-07-23T00:07:31;16.40;1.00
14401;DHT22;7285;50.894;5.462;2022-07-23T00:09:58;16.30;1.00
14401;DHT22;7285;50.894;5.462;2022-07-23T00:12:25;16.30;1.00
14401;DHT22;7285;50.894;5.462;2022-07-23T00:14:52;16.30;82.00
14401;DHT22;7285;50.894;5.462;2022-07-23T00:17:20;16.20;99.90
14401;DHT22;7285;50.894;5.462;2022-07-23T00:19:47;16.20;99.90
14401;DHT22;7285;50.894;5.462;2022-07-23T00:22:14;16.20;1.00
14401;DHT22;7285;50.894;5.462;2022-07-23T00:24:41;16.10;99.90
14401;DHT22;7285;50.894;5.462;2022-07-23T00:27:08;16.00;99.90
14401;DHT22;7285;50.894;5.462;2022-07-23T00:29:35;16.00;99.90
14401;DHT22;7285;50.894;5.462;2022-07-23T00:32:02;16.00;1.00
14401;DHT22;7285;50.894;5.462;2022-07-23T00:34:30;16.00;1.00
14401;DHT22;7285;50.894;5.462;2022-07-23T00:36:57;16.00;1.00
14401;DHT22;7285;50.894;5.462;2022-07-23T00:39:24;16.00;1.00
14401;DHT22;7285;50.894;5.462;2022-07-23T00:41:51;16.00;99.90
14401;DHT22;7285;50.894;5.462;2022-07-23T00:44:21;15.90;1.00
14401;DHT22;7285;50.894;5.462;2022-07-23T00:46:50;15.90;1.00
14401;DHT22;7285;50.894;5.462;2022-07-23T00:49:19;15.80;1.00
14401;DHT22;7285;50.894;5.462;2022-07-23T00:51:48;15.80;1.00
14401;DHT22;7285;50.894;5.462;2022-07-23T00:54:16;15.70;99.90
14401;DHT22;7285;50.894;5.462;2022-07-23T00:56:44;15.80;1.00
14401;DHT22;7285;50.894;5.462;2022-07-23T00:59:12;15.70;99.90
14401;DHT22;7285;50.894;5.462;2022-07-23T01:01:39;15.60;1.00
14401;DHT22;7285;50.894;5.462;2022-07-23T01:04:06;15.60;1.00
14401;DHT22;7285;50.894;5.462;2022-07-23T01:06:35;15.60;1.00
14401;DHT22;7285;50.894;5.462;2022-07-23T01:09:04;15.50;1.00
14401;DHT22;7285;50.894;5.462;2022-07-23T01:11:32;15.50;1.00
14401;DHT22;7285;50.894;5.462;2022-07-23T01:14:07;15.40;1.00
14401;DHT22;7285;50.894;5.462;2022-07-23T01:16:34;15.40;1.00
14401;DHT22;7285;50.894;5.462;2022-07-23T01:19:00;15.30;1.00
14401;DHT22;7285;50.894;5.462;2022-07-23T01:21:27;15.40;1.00
14401;DHT22;7285;50.894;5.462;2022-07-23T01:23:56;15.40;99.90
14401;DHT22;7285;50.894;5.462;2022-07-23T01:26:22;15.40;1.00
14401;DHT22;7285;50.894;5.462;2022-07-23T01:28:49;15.40;8.50
14401;DHT22;7285;50.894;5.462;2022-07-23T01:31:16;15.40;99.90
14401;DHT22;7285;50.894;5.462;2022-07-23T01:33:43;15.40;99.90
14401;DHT22;7285;50.894;5.462;2022-07-23T01:36:10;15.30;99.90
14401;DHT22;7285;50.894;5.462;2022-07-23T01:38:37;15.30;99.90
14401;DHT22;7285;50.894;5.462;2022-07-23T01:41:05;15.20;99.90
14401;DHT22;7285;50.894;5.462;2022-07-23T01:43:32;15.20;99.90
14401;DHT22;7285;50.894;5.462;2022-07-23T01:45:59;15.20;99.90
14401;DHT22;7285;50.894;5.462;2022-07-23T01:48:26;15.20;99.90
14401;DHT22;7285;50.894;5.462;2022-07-23T01:50:52;15.10;1.00
14401;DHT22;7285;50.894;5.462;2022-07-23T01:53:19;15.00;1.00
14401;DHT22;7285;50.894;5.462;2022-07-23T01:55:46;14.90;99.90
14401;DHT22;7285;50.894;5.462;2022-07-23T01:58:14;14.80;81.20
14401;DHT22;7285;50.894;5.462;2022-07-23T02:00:41;14.80;99.90
14401;DHT22;7285;50.894;5.462;2022-07-23T02:03:08;14.80;1.00
14401;DHT22;7285;50.894;5.462;2022-07-23T02:05:35;14.80;1.00
14401;DHT22;7285;50.894;5.462;2022-07-23T02:08:02;14.90;1.00
14401;DHT22;7285;50.894;5.462;2022-07-23T02:10:29;14.80;1.00
14401;DHT22;7285;50.894;5.462;2022-07-23T02:12:56;14.80;1.00
14401;DHT22;7285;50.894;5.462;2022-07-23T02:15:24;14.80;1.00
14401;DHT22;7285;50.894;5.462;2022-07-23T02:17:51;14.80;28.50
14401;DHT22;7285;50.894;5.462;2022-07-23T02:20:18;14.80;99.90
14401;DHT22;7285;50.894;5.462;2022-07-23T02:22:44;14.70;99.90
14401;DHT22;7285;50.894;5.462;2022-07-23T02:25:11;14.70;99.90
14401;DHT22;7285;50.894;5.462;2022-07-23T02:27:38;14.70;1.00
14401;DHT22;7285;50.894;5.462;2022-07-23T02:30:06;14.70;1.00
14401;DHT22;7285;50.894;5.462;2022-07-23T02:32:35;14.70;1.00
14401;DHT22;7285;50.894;5.462;2022-07-23T02:35:03;14.70;1.00
14401;DHT22;7285;50.894;5.462;2022-07-23T02:37:30;14.70;63.90
14401;DHT22;7285;50.894;5.462;2022-07-23T02:39:56;14.70;99.90
14401;DHT22;7285;50.894;5.462;2022-07-23T02:42:23;14.70;99.90
14401;DHT22;7285;50.894;5.462;2022-07-23T02:44:51;14.50;1.00
14401;DHT22;7285;50.894;5.462;2022-07-23T02:47:18;14.50;1.00
14401;DHT22;7285;50.894;5.462;2022-07-23T02:49:46;14.50;99.90
14401;DHT22;7285;50.894;5.462;2022-07-23T02:52:13;14.40;1.00
14401;DHT22;7285;50.894;5.462;2022-07-23T02:54:40;14.40;1.00
14401;DHT22;7285;50.894;5.462;2022-07-23T02:57:07;14.30;1.00
14401;DHT22;7285;50.894;5.462;2022-07-23T02:59:33;14.40;1.00
14401;DHT22;7285;50.894;5.462;2022-07-23T03:02:00;14.30;1.00
14401;DHT22;7285;50.894;5.462;2022-07-23T03:04:27;14.30;99.90
14401;DHT22;7285;50.894;5.462;2022-07-23T03:06:55;14.30;19.00
14401;DHT22;7285;50.894;5.462;2022-07-23T03:09:22;14.20;1.00
14401;DHT22;7285;50.894;5.462;2022-07-23T03:11:49;14.20;99.90
14401;DHT22;7285;50.894;5.462;2022-07-23T03:14:16;14.30;1.00
14401;DHT22;7285;50.894;5.462;2022-07-23T03:16:43;14.30;1.00
14401;DHT22;7285;50.894;5.462;2022-07-23T03:19:10;14.20;1.00
14401;DHT22;7285;50.894;5.462;2022-07-23T03:21:36;14.20;1.80
14401;DHT22;7285;50.894;5.462;2022-07-23T03:24:07;14.20;1.00
14401;DHT22;7285;50.894;5.462;2022-07-23T03:26:35;14.10;99.90
14401;DHT22;7285;50.894;5.462;2022-07-23T03:29:02;14.00;1.00
14401;DHT22;7285;50.894;5.462;2022-07-23T03:31:29;13.90;1.00
14401;DHT22;7285;50.894;5.462;2022-07-23T03:33:57;13.90;1.00
14401;DHT22;7285;50.894;5.462;2022-07-23T03:36:25;13.90;1.00
14401;DHT22;7285;50.894;5.462;2022-07-23T03:38:52;13.90;1.00
14401;DHT22;7285;50.894;5.462;2022-07-23T03:41:20;13.90;1.00
14401;DHT22;7285;50.894;5.462;2022-07-23T03:43:47;13.80;1.00
14401;DHT22;7285;50.894;5.462;2022-07-23T03:46:14;13.70;1.00
14401;DHT22;7285;50.894;5.462;2022-07-23T03:48:41;13.70;1.00
14401;DHT22;7285;50.894;5.462;2022-07-23T03:51:08;13.70;1.00
14401;DHT22;7285;50.894;5.462;2022-07-23T03:53:35;13.70;99.90
14401;DHT22;7285;50.894;5.462;2022-07-23T03:56:01;13.60;99.90
14401;DHT22;7285;50.894;5.462;2022-07-23T03:58:30;13.60;99.90
14401;DHT22;7285;50.894;5.462;2022-07-23T04:00:56;13.60;1.00
14401;DHT22;7285;50.894;5.462;2022-07-23T04:03:23;13.60;1.00
14401;DHT22;7285;50.894;5.462;2022-07-23T04:05:50;13.60;97.40
14401;DHT22;7285;50.894;5.462;2022-07-23T04:08:17;13.60;99.90
14401;DHT22;7285;50.894;5.462;2022-07-23T04:10:44;13.60;1.00
14401;DHT22;7285;50.894;5.462;2022-07-23T04:13:11;13.60;1.00
14401;DHT22;7285;50.894;5.462;2022-07-23T04:15:39;13.60;1.00
14401;DHT22;7285;50.894;5.462;2022-07-23T04:18:06;13.60;1.00
14401;DHT22;7285;50.894;5.462;2022-07-23T04:20:33;13.60;1.00
14401;DHT22;7285;50.894;5.462;2022-07-23T04:23:00;13.60;1.00
14401;DHT22;7285;50.894;5.462;2022-07-23T04:25:27;13.60;1.00
14401;DHT22;7285;50.894;5.462;2022-07-23T04:27:54;13.60;99.90
14401;DHT22;7285;50.894;5.462;2022-07-23T04:30:21;13.60;1.00
14401;DHT22;7285;50.894;5.462;2022-07-23T04:32:49;13.70;99.90
14401;DHT22;7285;50.894;5.462;2022-07-23T04:35:16;13.70;99.90
14401;DHT22;7285;50.894;5.462;2022-07-23T04:37:43;13.70;99.90
14401;DHT22;7285;50.894;5.462;2022-07-23T04:40:11;13.70;1.00
14401;DHT22;7285;50.894;5.462;2022-07-23T04:42:38;13.70;1.00
14401;DHT22;7285;50.894;5.462;2022-07-23T04:45:06;13.80;1.00
14401;DHT22;7285;50.894;5.462;2022-07-23T04:47:33;13.80;1.00
14401;DHT22;7285;50.894;5.462;2022-07-23T04:50:01;13.80;1.00
14401;DHT22;7285;50.894;5.462;2022-07-23T04:52:28;13.90;84.50
14401;DHT22;7285;50.894;5.462;2022-07-23T04:54:54;14.00;99.90
14401;DHT22;7285;50.894;5.462;2022-07-23T04:57:21;14.00;99.90
14401;DHT22;7285;50.894;5.462;2022-07-23T04:59:48;14.00;99.90
14401;DHT22;7285;50.894;5.462;2022-07-23T05:02:15;14.10;1.00
14401;DHT22;7285;50.894;5.462;2022-07-23T05:04:42;14.10;1.40
14401;DHT22;7285;50.894;5.462;2022-07-23T05:07:10;14.20;99.90
14401;DHT22;7285;50.894;5.462;2022-07-23T05:09:37;14.20;99.90
14401;DHT22;7285;50.894;5.462;2022-07-23T05:12:04;14.20;99.90
14401;DHT22;7285;50.894;5.462;2022-07-23T05:14:31;14.30;1.00
14401;DHT22;7285;50.894;5.462;2022-07-23T05:16:58;14.40;1.00
14401;DHT22;7285;50.894;5.462;2022-07-23T05:19:25;14.40;1.00
14401;DHT22;7285;50.894;5.462;2022-07-23T05:21:52;14.50;1.00
14401;DHT22;7285;50.894;5.462;2022-07-23T05:24:20;14.60;1.00
14401;DHT22;7285;50.894;5.462;2022-07-23T05:26:47;14.60;1.00
14401;DHT22;7285;50.894;5.462;2022-07-23T05:29:14;14.60;1.00
14401;DHT22;7285;50.894;5.462;2022-07-23T05:31:40;14.60;1.00
14401;DHT22;7285;50.894;5.462;2022-07-23T05:34:07;14.70;1.00
14401;DHT22;7285;50.894;5.462;2022-07-23T05:36:34;14.80;1.00
14401;DHT22;7285;50.894;5.462;2022-07-23T05:39:01;14.90;1.00
14401;DHT22;7285;50.894;5.462;2022-07-23T05:41:30;14.90;1.00
14401;DHT22;7285;50.894;5.462;2022-07-23T05:43:57;14.90;1.00
14401;DHT22;7285;50.894;5.462;2022-07-23T05:46:24;15.10;1.00
14401;DHT22;7285;50.894;5.462;2022-07-23T05:48:50;15.10;1.00
14401;DHT22;7285;50.894;5.462;2022-07-23T05:51:20;15.20;99.90
14401;DHT22;7285;50.894;5.462;2022-07-23T05:53:46;15.30;99.90
14401;DHT22;7285;50.894;5.462;2022-07-23T05:56:13;15.30;1.00
14401;DHT22;7285;50.894;5.462;2022-07-23T05:58:42;15.40;1.00
14401;DHT22;7285;50.894;5.462;2022-07-23T06:01:09;15.50;1.00
14401;DHT22;7285;50.894;5.462;2022-07-23T06:03:37;15.50;99.90
14401;DHT22;7285;50.894;5.462;2022-07-23T06:06:04;15.70;1.00
14401;DHT22;7285;50.894;5.462;2022-07-23T06:08:31;15.80;1.00
14401;DHT22;7285;50.894;5.462;2022-07-23T06:10:58;15.90;57.50
14401;DHT22;7285;50.894;5.462;2022-07-23T06:13:25;16.00;99.90
14401;DHT22;7285;50.894;5.462;2022-07-23T06:15:53;16.10;13.20
14401;DHT22;7285;50.894;5.462;2022-07-23T06:18:20;16.10;99.90
14401;DHT22;7285;50.894;5.462;2022-07-23T06:20:47;16.20;1.00
14401;DHT22;7285;50.894;5.462;2022-07-23T06:23:14;16.30;1.00
14401;DHT22;7285;50.894;5.462;2022-07-23T06:25:40;16.50;1.00
14401;DHT22;7285;50.894;5.462;2022-07-23T06:28:07;16.60;99.90
14401;DHT22;7285;50.894;5.462;2022-07-23T06:30:34;16.60;1.00
14401;DHT22;7285;50.894;5.462;2022-07-23T06:33:02;16.80;99.90
14401;DHT22;7285;50.894;5.462;2022-07-23T06:35:29;16.90;1.00
14401;DHT22;7285;50.894;5.462;2022-07-23T06:37:56;17.00;1.00
14401;DHT22;7285;50.894;5.462;2022-07-23T06:40:23;17.10;1.00
14401;DHT22;7285;50.894;5.462;2022-07-23T06:42:50;17.20;1.00
14401;DHT22;7285;50.894;5.462;2022-07-23T06:45:17;17.30;99.90
14401;DHT22;7285;50.894;5.462;2022-07-23T06:47:44;17.30;1.00
14401;DHT22;7285;50.894;5.462;2022-07-23T06:50:12;17.40;1.00
14401;DHT22;7285;50.894;5.462;2022-07-23T06:52:39;17.50;99.90
14401;DHT22;7285;50.894;5.462;2022-07-23T06:55:06;17.60;99.90
14401;DHT22;7285;50.894;5.462;2022-07-23T06:57:33;17.80;1.00
14401;DHT22;7285;50.894;5.462;2022-07-23T07:00:00;17.90;99.90
14401;DHT22;7285;50.894;5.462;2022-07-23T07:02:27;18.00;99.90
14401;DHT22;7285;50.894;5.462;2022-07-23T07:04:54;18.00;1.00
14401;DHT22;7285;50.894;5.462;2022-07-23T07:07:23;18.20;1.00
14401;DHT22;7285;50.894;5.462;2022-07-23T07:09:49;18.30;1.00
14401;DHT22;7285;50.894;5.462;2022-07-23T07:12:16;18.50;1.00
14401;DHT22;7285;50.894;5.462;2022-07-23T07:14:43;18.60;1.00
14401;DHT22;7285;50.894;5.462;2022-07-23T07:17:10;18.70;1.00
14401;DHT22;7285;50.894;5.462;2022-07-23T07:19:37;18.60;1.00
14401;DHT22;7285;50.894;5.462;2022-07-23T07:22:04;18.50;99.90
14401;DHT22;7285;50.894;5.462;2022-07-23T07:24:32;18.70;1.00
14401;DHT22;7285;50.894;5.462;2022-07-23T07:26:59;18.80;1.00
14401;DHT22;7285;50.894;5.462;2022-07-23T07:29:26;18.80;1.00
14401;DHT22;7285;50.894;5.462;2022-07-23T07:31:53;19.00;1.00
14401;DHT22;7285;50.894;5.462;2022-07-23T07:34:20;19.10;99.90
14401;DHT22;7285;50.894;5.462;2022-07-23T07:36:47;19.10;99.90
14401;DHT22;7285;50.894;5.462;2022-07-23T07:39:15;19.10;99.90
14401;DHT22;7285;50.894;5.462;2022-07-23T07:41:43;19.00;99.90
14401;DHT22;7285;50.894;5.462;2022-07-23T07:44:10;19.00;99.90
14401;DHT22;7285;50.894;5.462;2022-07-23T07:46:37;19.00;99.90
14401;DHT22;7285;50.894;5.462;2022-07-23T07:49:04;19.20;99.90
14401;DHT22;7285;50.894;5.462;2022-07-23T07:51:31;19.50;99.90
14401;DHT22;7285;50.894;5.462;2022-07-23T07:53:58;19.70;99.90
14401;DHT22;7285;50.894;5.462;2022-07-23T07:56:25;19.60;99.90
14401;DHT22;7285;50.894;5.462;2022-07-23T07:58:53;19.50;41.50
14401;DHT22;7285;50.894;5.462;2022-07-23T08:01:20;19.90;99.90
14401;DHT22;7285;50.894;5.462;2022-07-23T08:03:47;20.00;1.00
14401;DHT22;7285;50.894;5.462;2022-07-23T08:06:14;20.10;1.00
14401;DHT22;7285;50.894;5.462;2022-07-23T08:08:41;20.00;1.00
14401;DHT22;7285;50.894;5.462;2022-07-23T08:11:08;20.30;1.00
14401;DHT22;7285;50.894;5.462;2022-07-23T08:13:35;20.60;24.40
14401;DHT22;7285;50.894;5.462;2022-07-23T08:16:04;20.70;1.00
14401;DHT22;7285;50.894;5.462;2022-07-23T08:18:31;20.90;1.00
14401;DHT22;7285;50.894;5.462;2022-07-23T08:20:58;20.90;1.00
14401;DHT22;7285;50.894;5.462;2022-07-23T08:23:26;21.10;1.00
14401;DHT22;7285;50.894;5.462;2022-07-23T08:25:52;21.20;1.00
14401;DHT22;7285;50.894;5.462;2022-07-23T08:28:19;21.20;1.00
14401;DHT22;7285;50.894;5.462;2022-07-23T08:30:46;21.20;1.00
14401;DHT22;7285;50.894;5.462;2022-07-23T08:33:16;21.50;1.00
14401;DHT22;7285;50.894;5.462;2022-07-23T08:35:45;21.40;1.00
14401;DHT22;7285;50.894;5.462;2022-07-23T08:38:13;21.30;1.00
14401;DHT22;7285;50.894;5.462;2022-07-23T08:40:43;21.40;1.00
14401;DHT22;7285;50.894;5.462;2022-07-23T08:43:12;21.50;1.00
14401;DHT22;7285;50.894;5.462;2022-07-23T08:45:40;21.60;1.00
14401;DHT22;7285;50.894;5.462;2022-07-23T08:48:11;21.50;1.00
14401;DHT22;7285;50.894;5.462;2022-07-23T08:50:42;21.60;1.00
14401;DHT22;7285;50.894;5.462;2022-07-23T08:53:10;21.30;1.00
14401;DHT22;7285;50.894;5.462;2022-07-23T08:55:37;21.50;1.00
14401;DHT22;7285;50.894;5.462;2022-07-23T08:58:04;21.70;1.00
14401;DHT22;7285;50.894;5.462;2022-07-23T09:00:31;21.90;1.00
14401;DHT22;7285;50.894;5.462;2022-07-23T09:02:58;22.10;1.00
14401;DHT22;7285;50.894;5.462;2022-07-23T09:05:25;22.10;1.00
14401;DHT22;7285;50.894;5.462;2022-07-23T09:08:13;22.30;1.00
14401;DHT22;7285;50.894;5.462;2022-07-23T09:10:52;22.40;1.00
14401;DHT22;7285;50.894;5.462;2022-07-23T09:16:08;22.90;1.00
14401;DHT22;7285;50.894;5.462;2022-07-23T09:18:46;23.10;1.00
14401;DHT22;7285;50.894;5.462;2022-07-23T09:21:22;23.10;1.00
14401;DHT22;7285;50.894;5.462;2022-07-23T09:23:55;23.30;1.00
14401;DHT22;7285;50.894;5.462;2022-07-23T09:26:34;23.30;1.00
14401;DHT22;7285;50.894;5.462;2022-07-23T09:29:05;23.40;1.00
14401;DHT22;7285;50.894;5.462;2022-07-23T09:31:35;23.70;1.00
14401;DHT22;7285;50.894;5.462;2022-07-23T09:34:12;23.60;99.90
14401;DHT22;7285;50.894;5.462;2022-07-23T09:36:40;23.80;99.90
14401;DHT22;7285;50.894;5.462;2022-07-23T09:39:08;24.00;99.90
14401;DHT22;7285;50.894;5.462;2022-07-23T09:41:37;24.20;99.90
14401;DHT22;7285;50.894;5.462;2022-07-23T09:44:09;24.20;99.90
14401;DHT22;7285;50.894;5.462;2022-07-23T09:46:38;24.10;99.90
14401;DHT22;7285;50.894;5.462;2022-07-23T09:49:19;24.20;99.90
14401;DHT22;7285;50.894;5.462;2022-07-23T09:51:53;23.90;99.90
14401;DHT22;7285;50.894;5.462;2022-07-23T09:54:24;23.90;99.90
14401;DHT22;7285;50.894;5.462;2022-07-23T09:56:52;24.20;99.90
14401;DHT22;7285;50.894;5.462;2022-07-23T09:59:23;24.30;99.90
14401;DHT22;7285;50.894;5.462;2022-07-23T10:01:52;24.10;99.90
14401;DHT22;7285;50.894;5.462;2022-07-23T10:04:20;24.20;99.90
14401;DHT22;7285;50.894;5.462;2022-07-23T10:06:48;24.00;99.90
14401;DHT22;7285;50.894;5.462;2022-07-23T10:09:25;24.40;99.90
14401;DHT22;7285;50.894;5.462;2022-07-23T10:11:57;24.80;99.90
14401;DHT22;7285;50.894;5.462;2022-07-23T10:14:29;24.80;99.90
14401;DHT22;7285;50.894;5.462;2022-07-23T10:16:58;24.40;99.90
14401;DHT22;7285;50.894;5.462;2022-07-23T10:19:26;24.30;99.90
14401;DHT22;7285;50.894;5.462;2022-07-23T10:21:57;24.60;99.90
14401;DHT22;7285;50.894;5.462;2022-07-23T10:24:40;24.80;99.90
14401;DHT22;7285;50.894;5.462;2022-07-23T10:27:34;25.10;99.90
14401;DHT22;7285;50.894;5.462;2022-07-23T10:30:06;25.40;99.90
14401;DHT22;7285;50.894;5.462;2022-07-23T10:32:45;25.50;99.90
14401;DHT22;7285;50.894;5.462;2022-07-23T10:35:22;25.40;99.90
14401;DHT22;7285;50.894;5.462;2022-07-23T10:37:56;25.50;99.90
14401;DHT22;7285;50.894;5.462;2022-07-23T10:40:24;25.70;99.90
14401;DHT22;7285;50.894;5.462;2022-07-23T10:42:52;25.30;99.90
14401;DHT22;7285;50.894;5.462;2022-07-23T10:45:27;25.40;99.90
14401;DHT22;7285;50.894;5.462;2022-07-23T10:47:55;25.50;99.90
14401;DHT22;7285;50.894;5.462;2022-07-23T10:50:24;25.90;99.90
14401;DHT22;7285;50.894;5.462;2022-07-23T10:53:14;26.20;99.90
14401;DHT22;7285;50.894;5.462;2022-07-23T10:55:49;26.40;99.90
14401;DHT22;7285;50.894;5.462;2022-07-23T10:58:21;26.70;99.90
14401;DHT22;7285;50.894;5.462;2022-07-23T11:00:49;26.60;99.90
14401;DHT22;7285;50.894;5.462;2022-07-23T11:03:31;26.60;99.90
14401;DHT22;7285;50.894;5.462;2022-07-23T11:06:02;26.80;99.90
14401;DHT22;7285;50.894;5.462;2022-07-23T11:08:29;26.70;99.90
14401;DHT22;7285;50.894;5.462;2022-07-23T11:11:09;26.60;99.90
14401;DHT22;7285;50.894;5.462;2022-07-23T11:13:42;26.40;99.90
14401;DHT22;7285;50.894;5.462;2022-07-23T11:16:22;26.30;99.90
14401;DHT22;7285;50.894;5.462;2022-07-23T11:19:03;26.60;99.90
14401;DHT22;7285;50.894;5.462;2022-07-23T11:21:44;26.70;99.90
14401;DHT22;7285;50.894;5.462;2022-07-23T11:24:12;27.40;99.90
14401;DHT22;7285;50.894;5.462;2022-07-23T11:27:02;27.50;99.90
14401;DHT22;7285;50.894;5.462;2022-07-23T11:29:48;27.40;99.90
14401;DHT22;7285;50.894;5.462;2022-07-23T11:32:24;27.00;99.90
14401;DHT22;7285;50.894;5.462;2022-07-23T11:34:51;26.90;99.90
14401;DHT22;7285;50.894;5.462;2022-07-23T11:37:43;27.30;99.90
14401;DHT22;7285;50.894;5.462;2022-07-23T11:40:13;27.40;99.90
14401;DHT22;7285;50.894;5.462;2022-07-23T11:42:56;27.20;99.90
14401;DHT22;7285;50.894;5.462;2022-07-23T11:45:25;27.60;99.90
14401;DHT22;7285;50.894;5.462;2022-07-23T11:47:52;27.90;99.90
14401;DHT22;7285;50.894;5.462;2022-07-23T11:50:24;28.10;99.90
14401;DHT22;7285;50.894;5.462;2022-07-23T11:52:52;27.60;99.90
14401;DHT22;7285;50.894;5.462;2022-07-23T11:55:19;27.90;99.90
14401;DHT22;7285;50.894;5.462;2022-07-23T11:57:47;28.30;99.90
14401;DHT22;7285;50.894;5.462;2022-07-23T12:00:15;27.70;99.90
14401;DHT22;7285;50.894;5.462;2022-07-23T12:02:44;27.50;99.90
14401;DHT22;7285;50.894;5.462;2022-07-23T12:05:13;28.00;99.90
14401;DHT22;7285;50.894;5.462;2022-07-23T12:07:41;28.10;99.90
14401;DHT22;7285;50.894;5.462;2022-07-23T12:10:13;28.10;99.90
14401;DHT22;7285;50.894;5.462;2022-07-23T12:12:42;28.20;99.90
14401;DHT22;7285;50.894;5.462;2022-07-23T12:15:12;28.30;99.90
14401;DHT22;7285;50.894;5.462;2022-07-23T12:17:41;28.50;99.90
14401;DHT22;7285;50.894;5.462;2022-07-23T12:20:12;28.70;99.90
14401;DHT22;7285;50.894;5.462;2022-07-23T12:22:40;28.80;99.90
14401;DHT22;7285;50.894;5.462;2022-07-23T12:25:09;28.80;99.90
14401;DHT22;7285;50.894;5.462;2022-07-23T12:27:37;28.70;99.90
14401;DHT22;7285;50.894;5.462;2022-07-23T12:30:22;28.70;99.90
14401;DHT22;7285;50.894;5.462;2022-07-23T12:32:50;28.80;99.90
14401;DHT22;7285;50.894;5.462;2022-07-23T12:35:18;29.10;99.90
14401;DHT22;7285;50.894;5.462;2022-07-23T12:37:47;29.30;99.90
14401;DHT22;7285;50.894;5.462;2022-07-23T12:40:29;29.40;1.00
14401;DHT22;7285;50.894;5.462;2022-07-23T12:42:59;29.20;1.00
14401;DHT22;7285;50.894;5.462;2022-07-23T12:45:42;29.10;1.00
14401;DHT22;7285;50.894;5.462;2022-07-23T12:48:16;28.50;1.00
14401;DHT22;7285;50.894;5.462;2022-07-23T12:50:48;29.10;1.00
14401;DHT22;7285;50.894;5.462;2022-07-23T12:53:17;29.60;1.00
14401;DHT22;7285;50.894;5.462;2022-07-23T12:55:45;29.40;1.00
14401;DHT22;7285;50.894;5.462;2022-07-23T12:58:15;29.50;99.90
14401;DHT22;7285;50.894;5.462;2022-07-23T13:00:52;29.10;99.90
14401;DHT22;7285;50.894;5.462;2022-07-23T13:03:23;29.60;99.90
14401;DHT22;7285;50.894;5.462;2022-07-23T13:05:50;29.50;99.90
14401;DHT22;7285;50.894;5.462;2022-07-23T13:08:17;29.80;99.90
14401;DHT22;7285;50.894;5.462;2022-07-23T13:10:44;29.80;99.90
14401;DHT22;7285;50.894;5.462;2022-07-23T13:13:13;29.90;99.90
14401;DHT22;7285;50.894;5.462;2022-07-23T13:15:40;30.10;99.90
14401;DHT22;7285;50.894;5.462;2022-07-23T13:18:08;30.00;99.90
14401;DHT22;7285;50.894;5.462;2022-07-23T13:20:35;30.30;99.90
14401;DHT22;7285;50.894;5.462;2022-07-23T13:23:04;29.90;99.90
14401;DHT22;7285;50.894;5.462;2022-07-23T13:25:31;29.90;99.90
14401;DHT22;7285;50.894;5.462;2022-07-23T13:27:58;30.10;99.90
14401;DHT22;7285;50.894;5.462;2022-07-23T13:30:24;30.00;99.90
14401;DHT22;7285;50.894;5.462;2022-07-23T13:32:51;30.50;99.90
14401;DHT22;7285;50.894;5.462;2022-07-23T13:35:20;30.40;99.90
14401;DHT22;7285;50.894;5.462;2022-07-23T13:37:47;30.20;99.90
14401;DHT22;7285;50.894;5.462;2022-07-23T13:40:14;30.00;99.90
14401;DHT22;7285;50.894;5.462;2022-07-23T13:42:41;29.90;99.90
14401;DHT22;7285;50.894;5.462;2022-07-23T13:45:08;30.00;99.90
14401;DHT22;7285;50.894;5.462;2022-07-23T13:47:35;30.10;99.90
14401;DHT22;7285;50.894;5.462;2022-07-23T13:50:03;29.50;99.90
14401;DHT22;7285;50.894;5.462;2022-07-23T13:52:31;29.00;99.90
14401;DHT22;7285;50.894;5.462;2022-07-23T13:54:59;28.50;99.90
14401;DHT22;7285;50.894;5.462;2022-07-23T13:57:26;28.20;99.90
14401;DHT22;7285;50.894;5.462;2022-07-23T13:59:53;28.00;99.90
14401;DHT22;7285;50.894;5.462;2022-07-23T14:02:20;28.10;99.90
14401;DHT22;7285;50.894;5.462;2022-07-23T14:04:48;28.80;99.90
14401;DHT22;7285;50.894;5.462;2022-07-23T14:07:15;29.00;99.90
14401;DHT22;7285;50.894;5.462;2022-07-23T14:09:43;29.40;99.90
14401;DHT22;7285;50.894;5.462;2022-07-23T14:12:10;29.70;99.90
14401;DHT22;7285;50.894;5.462;2022-07-23T14:14:37;29.80;99.90
14401;DHT22;7285;50.894;5.462;2022-07-23T14:17:04;30.00;99.90
14401;DHT22;7285;50.894;5.462;2022-07-23T14:19:31;30.10;99.90
14401;DHT22;7285;50.894;5.462;2022-07-23T14:21:58;30.30;99.90
14401;DHT22;7285;50.894;5.462;2022-07-23T14:24:25;30.40;99.90
14401;DHT22;7285;50.894;5.462;2022-07-23T14:26:53;29.70;99.90
14401;DHT22;7285;50.894;5.462;2022-07-23T14:29:20;29.60;99.90
14401;DHT22;7285;50.894;5.462;2022-07-23T14:31:47;29.60;99.90
14401;DHT22;7285;50.894;5.462;2022-07-23T14:34:14;29.50;99.90
14401;DHT22;7285;50.894;5.462;2022-07-23T14:36:40;30.00;99.90
14401;DHT22;7285;50.894;5.462;2022-07-23T14:39:07;30.20;99.90
14401;DHT22;7285;50.894;5.462;2022-07-23T14:41:35;30.50;99.90
14401;DHT22;7285;50.894;5.462;2022-07-23T14:44:03;30.40;99.90
14401;DHT22;7285;50.894;5.462;2022-07-23T14:46:30;30.10;99.90
14401;DHT22;7285;50.894;5.462;2022-07-23T14:48:57;29.80;99.90
14401;DHT22;7285;50.894;5.462;2022-07-23T14:51:24;29.90;99.90
14401;DHT22;7285;50.894;5.462;2022-07-23T14:53:51;29.80;99.90
14401;DHT22;7285;50.894;5.462;2022-07-23T14:56:18;30.00;99.90
14401;DHT22;7285;50.894;5.462;2022-07-23T14:58:45;30.20;99.90
14401;DHT22;7285;50.894;5.462;2022-07-23T15:01:14;30.30;99.90
14401;DHT22;7285;50.894;5.462;2022-07-23T15:03:40;30.50;99.90
14401;DHT22;7285;50.894;5.462;2022-07-23T15:06:07;30.60;99.90
14401;DHT22;7285;50.894;5.462;2022-07-23T15:08:34;30.30;99.90
14401;DHT22;7285;50.894;5.462;2022-07-23T15:11:01;29.90;99.90
14401;DHT22;7285;50.894;5.462;2022-07-23T15:13:28;30.10;99.90
14401;DHT22;7285;50.894;5.462;2022-07-23T15:15:55;29.80;99.90
14401;DHT22;7285;50.894;5.462;2022-07-23T15:18:23;29.60;99.90
14401;DHT22;7285;50.894;5.462;2022-07-23T15:20:50;29.30;99.90
14401;DHT22;7285;50.894;5.462;2022-07-23T15:23:17;29.50;99.90
14401;DHT22;7285;50.894;5.462;2022-07-23T15:25:44;29.50;99.90
14401;DHT22;7285;50.894;5.462;2022-07-23T15:28:11;29.50;99.90
14401;DHT22;7285;50.894;5.462;2022-07-23T15:30:38;29.70;99.90
14401;DHT22;7285;50.894;5.462;2022-07-23T15:33:05;29.60;99.90
14401;DHT22;7285;50.894;5.462;2022-07-23T15:35:33;29.80;99.90
14401;DHT22;7285;50.894;5.462;2022-07-23T15:38:00;29.60;99.90
14401;DHT22;7285;50.894;5.462;2022-07-23T15:40:27;29.50;99.90
14401;DHT22;7285;50.894;5.462;2022-07-23T15:42:54;29.90;99.90
14401;DHT22;7285;50.894;5.462;2022-07-23T15:45:21;30.10;99.90
14401;DHT22;7285;50.894;5.462;2022-07-23T15:47:48;30.10;99.90
14401;DHT22;7285;50.894;5.462;2022-07-23T15:50:15;29.90;99.90
14401;DHT22;7285;50.894;5.462;2022-07-23T15:52:44;29.50;99.90
14401;DHT22;7285;50.894;5.462;2022-07-23T15:55:10;29.50;99.90
14401;DHT22;7285;50.894;5.462;2022-07-23T15:57:37;29.50;99.90
14401;DHT22;7285;50.894;5.462;2022-07-23T16:00:06;29.60;99.90
14401;DHT22;7285;50.894;5.462;2022-07-23T16:02:33;29.60;99.90